Aérodrome :
LOGIN :

S'inscrire | Disclaimer

   EN    FR    IT 

 










Légende :    VFR   VFR Marginal   IFR   IFR Intensif   IFR Très Intensif
Visi : 
Plafond : 
>= 8 km
>= 3000ft
5 à 8 km
1000 à 3000 ft
1500m à 5 km
500 à 1000 ft
800 à 1500m
200 à 500 ft
< 800m
< 200 ft
Symboles :   Orages  Brouillard  Fortes neiges  Fortes précipitations  Vent > 20 kt
SIGMETs :   Divers  Orages  Givrage  Turbulence  Onde Orograph.  Cendres Volcan.






- Altitude de l'aérodrome : 17 ft
- Code IATA : MPL


LFMT - Montpellier Méditerranée

DERNIER METAR :
  • 310000Z AUTO 36004KT CAVOK 09/08 Q1025 NOSIG

METARs EXPIRÉS :
  • 302330Z AUTO 34003KT CAVOK 09/08 Q1025 NOSIG
  • 302300Z AUTO 35002KT CAVOK 11/10 Q1024 NOSIG
  • 302230Z AUTO VRB02KT CAVOK 11/10 Q1025 NOSIG
  • 302200Z AUTO 01005KT CAVOK 11/09 Q1024 NOSIG

TAF TAF LFMT
Valide du 30 à 21h jusqu'au 31 à 21h UTC


302000Z 3021/3121 VRB03KT CAVOK
PROB30
TEMPO 3109/3111 BKN010
BECMG 3118/3120 BKN008
ATIS : +33 4 67 13 11 70



MET'MAP, la Météo Aéronautique d'un coup d'oeil ! - Copyright ORBIFLY Décembre 2007 - Disclaimer

ORBIFLY MET'MAP TEAM :

Programmation & Développement : Alexandra Zaïnal
Sur une idée originale de : Baudouin d'Aumeries
Assistance à la programmation : Marc-Olivier Méhu
Soutien technique & logistique : Manuel Goepfert

Contact : metmap@orbifly.com




SOURCES & CREDITS :

   NOAA